NKS801 KFLL-KLAS
Flight info
| Callsign | NKS801 |
|---|---|
| Flight time | N/A |
| Altitude | 32000 |
| Route | HROCK2 SMELZ Q116 JAWJA MGMRY MEI KF18I TXK DECOD ADM/N0462F340 HEATR PNH FTI TANER TBC SQIRE RKSTR4 |
| Aircraft | A320/M-SDE3FGHIRWY/LB1 |
Departure
| Time | N/A |
|---|---|
| Airport | Fort Lauderdale Hollywood International Airport (KFLL) |
Arrival
| Time | 2026-05-03 23:34 |
|---|---|
| Airport | Harry Reid International Airport (KLAS) |
| Time | Latitude | Longitude | Altitude | Speed | Heading |
|---|---|---|---|---|---|
| 2026-05-03 20:15 | 28.10944 | -82.13027 | 32081 ft | 437 kts | 314° |
| 2026-05-03 20:15 | 28.15912 | -82.16998 | 32127 ft | 437 kts | 314° |
| 2026-05-03 20:16 | 28.20882 | -82.20972 | 32118 ft | 437 kts | 314° |
| 2026-05-03 20:16 | 28.25856 | -82.24947 | 32108 ft | 437 kts | 314° |
| 2026-05-03 20:17 | 28.30832 | -82.28909 | 32096 ft | 437 kts | 314° |
| 2026-05-03 20:17 | 28.35801 | -82.32886 | 32090 ft | 437 kts | 314° |
| 2026-05-03 20:18 | 28.40760 | -82.36870 | 32084 ft | 437 kts | 314° |
| 2026-05-03 20:18 | 28.45723 | -82.40857 | 32163 ft | 437 kts | 314° |
| 2026-05-03 20:19 | 28.50672 | -82.44827 | 32104 ft | 434 kts | 314° |
| 2026-05-03 20:19 | 28.55604 | -82.48795 | 32097 ft | 434 kts | 314° |
| 2026-05-03 20:20 | 28.60537 | -82.52771 | 32098 ft | 434 kts | 314° |
| 2026-05-03 20:20 | 28.65464 | -82.56757 | 32090 ft | 434 kts | 314° |
| 2026-05-03 20:21 | 28.70396 | -82.60742 | 32093 ft | 435 kts | 314° |
| 2026-05-03 20:21 | 28.75326 | -82.64726 | 32092 ft | 435 kts | 314° |
| 2026-05-03 20:22 | 28.80254 | -82.68712 | 32127 ft | 434 kts | 314° |
| 2026-05-03 20:22 | 28.85173 | -82.72695 | 32109 ft | 434 kts | 314° |
| 2026-05-03 20:23 | 28.90089 | -82.76682 | 32104 ft | 433 kts | 314° |
| 2026-05-03 20:23 | 28.94993 | -82.80672 | 32121 ft | 433 kts | 314° |
| 2026-05-03 20:24 | 28.99896 | -82.84659 | 32114 ft | 432 kts | 314° |
| 2026-05-03 20:24 | 29.04793 | -82.88648 | 32104 ft | 432 kts | 314° |
| 2026-05-03 20:25 | 29.09691 | -82.92636 | 32134 ft | 432 kts | 314° |
| 2026-05-03 20:25 | 29.14577 | -82.96625 | 32121 ft | 432 kts | 314° |
| 2026-05-03 20:26 | 29.19468 | -83.00613 | 32115 ft | 432 kts | 314° |
| 2026-05-03 20:26 | 29.24355 | -83.04606 | 32106 ft | 431 kts | 314° |
| 2026-05-03 20:27 | 29.29235 | -83.08601 | 32100 ft | 431 kts | 314° |
| 2026-05-03 20:27 | 29.34114 | -83.12603 | 32104 ft | 431 kts | 314° |
| 2026-05-03 20:28 | 29.38987 | -83.16607 | 32144 ft | 431 kts | 314° |
| 2026-05-03 20:28 | 29.43856 | -83.20617 | 32138 ft | 430 kts | 314° |
| 2026-05-03 20:29 | 29.48719 | -83.24625 | 32131 ft | 430 kts | 314° |
| 2026-05-03 20:29 | 29.53578 | -83.28628 | 32119 ft | 430 kts | 314° |
| 2026-05-03 20:30 | 29.58442 | -83.32637 | 32114 ft | 430 kts | 314° |
| 2026-05-03 20:30 | 29.63303 | -83.36640 | 32110 ft | 430 kts | 314° |
| 2026-05-03 20:31 | 29.68158 | -83.40660 | 32147 ft | 430 kts | 314° |
| 2026-05-03 20:31 | 29.73010 | -83.44691 | 32130 ft | 430 kts | 314° |
| 2026-05-03 20:32 | 29.77875 | -83.48718 | 32115 ft | 431 kts | 314° |
| 2026-05-03 20:32 | 29.82733 | -83.52746 | 32116 ft | 430 kts | 314° |
| 2026-05-03 20:33 | 29.87592 | -83.56786 | 32130 ft | 431 kts | 314° |
| 2026-05-03 20:33 | 29.92452 | -83.60832 | 32123 ft | 431 kts | 314° |
| 2026-05-03 20:34 | 29.97308 | -83.64879 | 32155 ft | 431 kts | 314° |
| 2026-05-03 20:34 | 30.02173 | -83.68931 | 32138 ft | 431 kts | 314° |
| 2026-05-03 20:35 | 30.07036 | -83.72986 | 32127 ft | 431 kts | 314° |
| 2026-05-03 20:35 | 30.11896 | -83.77041 | 32121 ft | 431 kts | 314° |
| 2026-05-03 20:36 | 30.16745 | -83.81118 | 32120 ft | 428 kts | 311° |
| 2026-05-03 20:36 | 30.20940 | -83.85818 | 32120 ft | 418 kts | 304° |
| 2026-05-03 20:37 | 30.25003 | -83.90637 | 32126 ft | 418 kts | 304° |
| 2026-05-03 20:37 | 30.29059 | -83.95465 | 32140 ft | 418 kts | 305° |
| 2026-05-03 20:38 | 30.33088 | -84.00252 | 32134 ft | 418 kts | 305° |
| 2026-05-03 20:38 | 30.37148 | -84.05078 | 32136 ft | 418 kts | 305° |
| 2026-05-03 20:39 | 30.41210 | -84.09905 | 32141 ft | 418 kts | 305° |
| 2026-05-03 20:39 | 30.45271 | -84.14736 | 32136 ft | 418 kts | 305° |
| 2026-05-03 20:40 | 30.49321 | -84.19572 | 32136 ft | 418 kts | 304° |
| 2026-05-03 20:40 | 30.53374 | -84.24415 | 32133 ft | 418 kts | 304° |
| 2026-05-03 20:41 | 30.57417 | -84.29262 | 32144 ft | 418 kts | 305° |
| 2026-05-03 20:41 | 30.61466 | -84.34117 | 32145 ft | 418 kts | 305° |
| 2026-05-03 20:42 | 30.65513 | -84.38968 | 32146 ft | 418 kts | 305° |
| 2026-05-03 20:42 | 30.69561 | -84.43827 | 32144 ft | 418 kts | 305° |
| 2026-05-03 20:43 | 30.73609 | -84.48689 | 32142 ft | 418 kts | 305° |
| 2026-05-03 20:43 | 30.76969 | -84.52733 | 32142 ft | 418 kts | 305° |
| 2026-05-03 20:44 | 30.81012 | -84.57605 | 32142 ft | 418 kts | 305° |
| 2026-05-03 20:44 | 30.85049 | -84.62485 | 32169 ft | 418 kts | 305° |
| 2026-05-03 20:45 | 30.89088 | -84.67368 | 32182 ft | 419 kts | 305° |
| 2026-05-03 20:45 | 30.93131 | -84.72252 | 32166 ft | 419 kts | 305° |
| 2026-05-03 20:46 | 30.97164 | -84.77141 | 32161 ft | 419 kts | 305° |
| 2026-05-03 20:46 | 31.01201 | -84.82036 | 32154 ft | 419 kts | 305° |
| 2026-05-03 20:47 | 31.05235 | -84.86933 | 32150 ft | 419 kts | 305° |
| 2026-05-03 20:47 | 31.09263 | -84.91842 | 32152 ft | 419 kts | 304° |
| 2026-05-03 20:48 | 31.13292 | -84.96755 | 32153 ft | 419 kts | 305° |
| 2026-05-03 20:48 | 31.17328 | -85.01668 | 32188 ft | 419 kts | 304° |
| 2026-05-03 20:49 | 31.21361 | -85.06583 | 32190 ft | 419 kts | 304° |
| 2026-05-03 20:49 | 31.25388 | -85.11520 | 32173 ft | 419 kts | 304° |
| 2026-05-03 20:50 | 31.29409 | -85.16454 | 32175 ft | 419 kts | 304° |
| 2026-05-03 20:50 | 31.33435 | -85.21394 | 32157 ft | 419 kts | 304° |
| 2026-05-03 20:51 | 31.37466 | -85.26335 | 32162 ft | 420 kts | 304° |
| 2026-05-03 20:51 | 31.41492 | -85.31277 | 32183 ft | 420 kts | 304° |
| 2026-05-03 20:52 | 31.45519 | -85.36229 | 32211 ft | 420 kts | 304° |
| 2026-05-03 20:52 | 31.49546 | -85.41190 | 32199 ft | 420 kts | 304° |
| 2026-05-03 20:53 | 31.53568 | -85.46162 | 32198 ft | 421 kts | 305° |
| 2026-05-03 20:53 | 31.57600 | -85.51143 | 32170 ft | 421 kts | 305° |
| 2026-05-03 20:54 | 31.61633 | -85.56133 | 32165 ft | 422 kts | 305° |
| 2026-05-03 20:54 | 31.67682 | -85.63633 | 32157 ft | 422 kts | 305° |
| 2026-05-03 20:55 | 31.71716 | -85.68640 | 32167 ft | 422 kts | 305° |
| 2026-05-03 20:55 | 31.75744 | -85.73653 | 32188 ft | 422 kts | 305° |
| 2026-05-03 20:56 | 31.79777 | -85.78683 | 32181 ft | 423 kts | 305° |
| 2026-05-03 20:56 | 31.83815 | -85.83717 | 32175 ft | 423 kts | 305° |
| 2026-05-03 20:57 | 31.87854 | -85.88757 | 32180 ft | 423 kts | 305° |
| 2026-05-03 20:57 | 31.91892 | -85.93798 | 32181 ft | 423 kts | 305° |
| 2026-05-03 20:58 | 31.95928 | -85.98853 | 32180 ft | 424 kts | 305° |
| 2026-05-03 20:58 | 31.99963 | -86.03907 | 32175 ft | 424 kts | 305° |
| 2026-05-03 20:59 | 32.03998 | -86.08973 | 32191 ft | 424 kts | 305° |
| 2026-05-03 20:59 | 32.08033 | -86.14048 | 32176 ft | 424 kts | 305° |
| 2026-05-03 21:00 | 32.11390 | -86.18269 | 32187 ft | 425 kts | 306° |
| 2026-05-03 21:00 | 32.16112 | -86.24231 | 32164 ft | 426 kts | 306° |
| 2026-05-03 21:01 | 32.19984 | -86.29468 | 32169 ft | 418 kts | 296° |
| 2026-05-03 21:01 | 32.22293 | -86.35585 | 32149 ft | 403 kts | 278° |
| 2026-05-03 21:02 | 32.22965 | -86.42043 | 32147 ft | 398 kts | 271° |
| 2026-05-03 21:02 | 32.23430 | -86.48567 | 32145 ft | 399 kts | 271° |
| 2026-05-03 21:03 | 32.23902 | -86.55103 | 32140 ft | 400 kts | 271° |
| 2026-05-03 21:03 | 32.24369 | -86.61651 | 32134 ft | 401 kts | 271° |
| 2026-05-03 21:04 | 32.24835 | -86.68217 | 32095 ft | 402 kts | 271° |
| 2026-05-03 21:04 | 32.25292 | -86.74793 | 32114 ft | 402 kts | 271° |
| 2026-05-03 21:05 | 32.25744 | -86.81384 | 32124 ft | 403 kts | 271° |
| 2026-05-03 21:05 | 32.26196 | -86.87981 | 32139 ft | 403 kts | 271° |
| 2026-05-03 21:06 | 32.26645 | -86.94575 | 32148 ft | 403 kts | 271° |
| 2026-05-03 21:06 | 32.27092 | -87.01186 | 32148 ft | 405 kts | 272° |
| 2026-05-03 21:07 | 32.27534 | -87.07825 | 32139 ft | 406 kts | 272° |
| 2026-05-03 21:07 | 32.27977 | -87.14478 | 32131 ft | 406 kts | 272° |
| 2026-05-03 21:08 | 32.28414 | -87.21142 | 32095 ft | 407 kts | 272° |
| 2026-05-03 21:08 | 32.28849 | -87.27815 | 32108 ft | 407 kts | 272° |
| 2026-05-03 21:09 | 32.29275 | -87.34490 | 32118 ft | 408 kts | 272° |
| 2026-05-03 21:09 | 32.29707 | -87.41196 | 32108 ft | 410 kts | 273° |
| 2026-05-03 21:10 | 32.30143 | -87.47933 | 32107 ft | 412 kts | 273° |
| 2026-05-03 21:10 | 32.30568 | -87.54645 | 32111 ft | 413 kts | 272° |
| 2026-05-03 21:11 | 32.30986 | -87.61418 | 32120 ft | 413 kts | 272° |
| 2026-05-03 21:11 | 32.31408 | -87.68198 | 32122 ft | 414 kts | 272° |
| 2026-05-03 21:12 | 32.31826 | -87.74986 | 32135 ft | 415 kts | 274° |
| 2026-05-03 21:12 | 32.32249 | -87.81802 | 32125 ft | 417 kts | 274° |
| 2026-05-03 21:13 | 32.32666 | -87.88649 | 32143 ft | 418 kts | 274° |
| 2026-05-03 21:13 | 32.33074 | -87.95522 | 32147 ft | 419 kts | 274° |
| 2026-05-03 21:14 | 32.33477 | -88.02415 | 32160 ft | 421 kts | 274° |
| 2026-05-03 21:14 | 32.33889 | -88.09327 | 32161 ft | 422 kts | 275° |
| 2026-05-03 21:15 | 32.34293 | -88.16269 | 32155 ft | 424 kts | 275° |
| 2026-05-03 21:15 | 32.34693 | -88.23230 | 32165 ft | 425 kts | 275° |
| 2026-05-03 21:16 | 32.35097 | -88.30219 | 32167 ft | 426 kts | 275° |
| 2026-05-03 21:16 | 32.35493 | -88.37221 | 32168 ft | 427 kts | 275° |
| 2026-05-03 21:17 | 32.36138 | -88.48667 | 32152 ft | 427 kts | 276° |
| 2026-05-03 21:17 | 32.37035 | -88.65125 | 32147 ft | 430 kts | 276° |
| 2026-05-03 21:18 | 32.37784 | -88.79161 | 32153 ft | 430 kts | 277° |
| 2026-05-03 21:18 | 32.40455 | -88.92889 | 32102 ft | 428 kts | 285° |
| 2026-05-03 21:19 | 32.43264 | -89.06580 | 32108 ft | 428 kts | 285° |
| 2026-05-03 21:19 | 32.46090 | -89.20271 | 32114 ft | 428 kts | 285° |
| 2026-05-03 21:20 | 32.48889 | -89.33957 | 32109 ft | 427 kts | 285° |
| 2026-05-03 21:20 | 32.51671 | -89.47635 | 32087 ft | 427 kts | 285° |
| 2026-05-03 21:21 | 32.54451 | -89.61400 | 32107 ft | 427 kts | 285° |
| 2026-05-03 21:21 | 32.57201 | -89.75088 | 32134 ft | 427 kts | 285° |
| 2026-05-03 21:22 | 32.59907 | -89.88700 | 32140 ft | 427 kts | 285° |
| 2026-05-03 21:22 | 32.62649 | -90.02490 | 32147 ft | 426 kts | 285° |
| 2026-05-03 21:23 | 32.65331 | -90.16090 | 32156 ft | 426 kts | 285° |
| 2026-05-03 21:23 | 32.68018 | -90.29781 | 32164 ft | 426 kts | 285° |
| 2026-05-03 21:24 | 32.70686 | -90.43480 | 32166 ft | 426 kts | 285° |
| 2026-05-03 21:24 | 32.73337 | -90.57158 | 32179 ft | 425 kts | 285° |
| 2026-05-03 21:25 | 32.75968 | -90.70842 | 32184 ft | 425 kts | 285° |
| 2026-05-03 21:25 | 32.80453 | -90.94316 | 32137 ft | 423 kts | 285° |
| 2026-05-03 21:26 | 32.85596 | -91.21611 | 32084 ft | 422 kts | 285° |
| 2026-05-03 21:26 | 32.90667 | -91.48864 | 32160 ft | 422 kts | 285° |
| 2026-05-03 21:27 | 32.95657 | -91.76049 | 32160 ft | 420 kts | 285° |
| 2026-05-03 21:27 | 33.00672 | -92.03155 | 32146 ft | 417 kts | 288° |
| 2026-05-03 21:28 | 33.06490 | -92.25181 | 32152 ft | 415 kts | 289° |
| 2026-05-03 21:28 | 33.13143 | -92.51497 | 32137 ft | 413 kts | 289° |
| 2026-05-03 21:29 | 33.19752 | -92.77761 | 32121 ft | 413 kts | 289° |
| 2026-05-03 21:29 | 33.26303 | -93.04048 | 32105 ft | 413 kts | 289° |
| 2026-05-03 21:30 | 33.32772 | -93.30302 | 32102 ft | 411 kts | 288° |
| 2026-05-03 21:30 | 33.39180 | -93.56564 | 32125 ft | 411 kts | 288° |
| 2026-05-03 21:31 | 33.45540 | -93.82864 | 32105 ft | 411 kts | 288° |
| 2026-05-03 21:31 | 33.51829 | -94.09160 | 32118 ft | 410 kts | 288° |
| 2026-05-03 21:32 | 33.58425 | -94.35249 | 32122 ft | 408 kts | 288° |
| 2026-05-03 21:32 | 33.64918 | -94.61349 | 32103 ft | 408 kts | 288° |
| 2026-05-03 21:33 | 33.71369 | -94.87487 | 32115 ft | 408 kts | 288° |
| 2026-05-03 21:33 | 33.77708 | -95.13452 | 32121 ft | 407 kts | 288° |
| 2026-05-03 21:34 | 33.83887 | -95.39779 | 32126 ft | 406 kts | 286° |
| 2026-05-03 21:34 | 33.89575 | -95.66003 | 32103 ft | 405 kts | 286° |
| 2026-05-03 21:35 | 33.95153 | -95.91997 | 32109 ft | 402 kts | 286° |
| 2026-05-03 21:35 | 34.00701 | -96.18038 | 32112 ft | 400 kts | 286° |
| 2026-05-03 21:36 | 34.06157 | -96.43993 | 32107 ft | 399 kts | 286° |
| 2026-05-03 21:36 | 34.11548 | -96.69903 | 32082 ft | 398 kts | 286° |
| 2026-05-03 21:37 | 34.16885 | -96.95800 | 32094 ft | 396 kts | 285° |
| 2026-05-03 21:37 | 34.22202 | -97.21551 | 32089 ft | 394 kts | 287° |
| 2026-05-03 21:38 | 34.28411 | -97.46984 | 32068 ft | 396 kts | 287° |
| 2026-05-03 21:38 | 34.34481 | -97.72613 | 32062 ft | 395 kts | 287° |
| 2026-05-03 21:39 | 34.40490 | -97.98193 | 32048 ft | 394 kts | 287° |
| 2026-05-03 21:39 | 34.46409 | -98.23669 | 32068 ft | 393 kts | 287° |
| 2026-05-03 21:40 | 34.52281 | -98.49214 | 32053 ft | 393 kts | 286° |
| 2026-05-03 21:40 | 34.58073 | -98.74738 | 32005 ft | 391 kts | 286° |
| 2026-05-03 21:41 | 34.63816 | -99.00167 | 32015 ft | 390 kts | 285° |
| 2026-05-03 21:41 | 34.69484 | -99.25640 | 32022 ft | 391 kts | 285° |
| 2026-05-03 21:42 | 34.75111 | -99.51146 | 31970 ft | 390 kts | 285° |
| 2026-05-03 21:42 | 34.80652 | -99.76549 | 31997 ft | 388 kts | 285° |
| 2026-05-03 21:43 | 34.86343 | -100.01826 | 31974 ft | 387 kts | 285° |
| 2026-05-03 21:43 | 34.92117 | -100.27143 | 31967 ft | 388 kts | 285° |
| 2026-05-03 21:44 | 34.97837 | -100.52505 | 31979 ft | 388 kts | 285° |
| 2026-05-03 21:44 | 35.03493 | -100.77868 | 31979 ft | 387 kts | 285° |
| 2026-05-03 21:45 | 35.09092 | -101.03242 | 31945 ft | 387 kts | 285° |
| 2026-05-03 21:45 | 35.14646 | -101.28689 | 31944 ft | 388 kts | 285° |
| 2026-05-03 21:46 | 35.20147 | -101.54174 | 32075 ft | 387 kts | 284° |
| 2026-05-03 21:46 | 35.24829 | -101.79953 | 32036 ft | 389 kts | 280° |
| 2026-05-03 21:47 | 35.28338 | -102.05296 | 31955 ft | 389 kts | 279° |
| 2026-05-03 21:47 | 35.29211 | -102.11824 | 31941 ft | 388 kts | 279° |
| 2026-05-03 21:48 | 35.30083 | -102.18341 | 31936 ft | 388 kts | 279° |
| 2026-05-03 21:48 | 35.30951 | -102.24850 | 31940 ft | 387 kts | 279° |
| 2026-05-03 21:49 | 35.31813 | -102.31361 | 31941 ft | 387 kts | 279° |
| 2026-05-03 21:49 | 35.32675 | -102.37875 | 31934 ft | 387 kts | 279° |
| 2026-05-03 21:50 | 35.33538 | -102.44391 | 31922 ft | 388 kts | 279° |
| 2026-05-03 21:50 | 35.34397 | -102.50907 | 31929 ft | 388 kts | 279° |
| 2026-05-03 21:51 | 35.35243 | -102.57434 | 31929 ft | 388 kts | 279° |
| 2026-05-03 21:51 | 35.36088 | -102.63960 | 31930 ft | 388 kts | 279° |
| 2026-05-03 21:52 | 35.36931 | -102.70481 | 31936 ft | 388 kts | 279° |
| 2026-05-03 21:52 | 35.37776 | -102.77011 | 31923 ft | 388 kts | 279° |
| 2026-05-03 21:53 | 35.38617 | -102.83537 | 31922 ft | 387 kts | 279° |
| 2026-05-03 21:53 | 35.39448 | -102.90058 | 31927 ft | 387 kts | 279° |
| 2026-05-03 21:54 | 35.40274 | -102.96576 | 31923 ft | 387 kts | 279° |
| 2026-05-03 21:54 | 35.41094 | -103.03091 | 31925 ft | 387 kts | 279° |
| 2026-05-03 21:55 | 35.41913 | -103.09608 | 31920 ft | 387 kts | 279° |
| 2026-05-03 21:55 | 35.42732 | -103.16119 | 31914 ft | 386 kts | 279° |
| 2026-05-03 21:56 | 35.43550 | -103.22627 | 31914 ft | 386 kts | 279° |
| 2026-05-03 21:56 | 35.44359 | -103.29129 | 31918 ft | 386 kts | 279° |
| 2026-05-03 21:57 | 35.45161 | -103.35638 | 31934 ft | 386 kts | 279° |
| 2026-05-03 21:57 | 35.45959 | -103.42136 | 31944 ft | 385 kts | 279° |
| 2026-05-03 21:58 | 35.46756 | -103.48631 | 31948 ft | 385 kts | 279° |
| 2026-05-03 21:58 | 35.47548 | -103.55131 | 31942 ft | 385 kts | 279° |
| 2026-05-03 21:59 | 35.48331 | -103.61599 | 31973 ft | 385 kts | 279° |
| 2026-05-03 21:59 | 35.49122 | -103.68092 | 31956 ft | 385 kts | 279° |
| 2026-05-03 22:00 | 35.49901 | -103.74565 | 31933 ft | 384 kts | 279° |
| 2026-05-03 22:00 | 35.50674 | -103.81060 | 31916 ft | 385 kts | 279° |
| 2026-05-03 22:01 | 35.51449 | -103.87600 | 31905 ft | 384 kts | 278° |
| 2026-05-03 22:01 | 35.52218 | -103.94036 | 31902 ft | 384 kts | 278° |
| 2026-05-03 22:02 | 35.52986 | -104.00516 | 31903 ft | 383 kts | 278° |
| 2026-05-03 22:02 | 35.53747 | -104.06987 | 31900 ft | 383 kts | 278° |
| 2026-05-03 22:03 | 35.54507 | -104.13459 | 31892 ft | 383 kts | 278° |
| 2026-05-03 22:03 | 35.55260 | -104.19934 | 31889 ft | 383 kts | 278° |
| 2026-05-03 22:04 | 35.56009 | -104.26408 | 31886 ft | 383 kts | 278° |
| 2026-05-03 22:04 | 35.56764 | -104.32925 | 31889 ft | 383 kts | 278° |
| 2026-05-03 22:05 | 35.57498 | -104.39354 | 31887 ft | 382 kts | 278° |
| 2026-05-03 22:05 | 35.58236 | -104.45821 | 31889 ft | 382 kts | 278° |
| 2026-05-03 22:06 | 35.58973 | -104.52281 | 31891 ft | 382 kts | 278° |
| 2026-05-03 22:06 | 35.59698 | -104.58743 | 31887 ft | 382 kts | 278° |
| 2026-05-03 22:07 | 35.60427 | -104.65202 | 31917 ft | 382 kts | 278° |
| 2026-05-03 22:07 | 35.61150 | -104.71680 | 31901 ft | 383 kts | 278° |
| 2026-05-03 22:08 | 35.61870 | -104.78168 | 31896 ft | 383 kts | 278° |
| 2026-05-03 22:08 | 35.62597 | -104.84659 | 31897 ft | 383 kts | 278° |
| 2026-05-03 22:09 | 35.63317 | -104.91155 | 31897 ft | 384 kts | 278° |
| 2026-05-03 22:10 | 35.64258 | -104.99807 | 31902 ft | 383 kts | 277° |
| 2026-05-03 22:10 | 35.64615 | -105.03095 | 32093 ft | 383 kts | 277° |
| 2026-05-03 22:10 | 35.64965 | -105.06298 | 32094 ft | 383 kts | 277° |
| 2026-05-03 22:11 | 35.65679 | -105.12828 | 32096 ft | 383 kts | 277° |
| 2026-05-03 22:11 | 35.66351 | -105.19270 | 32098 ft | 383 kts | 277° |
| 2026-05-03 22:12 | 35.66998 | -105.25765 | 32094 ft | 383 kts | 277° |
| 2026-05-03 22:12 | 35.67646 | -105.32259 | 32056 ft | 382 kts | 277° |
| 2026-05-03 22:13 | 35.68293 | -105.38745 | 32037 ft | 382 kts | 277° |
| 2026-05-03 22:13 | 35.68935 | -105.45232 | 32011 ft | 382 kts | 277° |
| 2026-05-03 22:14 | 35.69576 | -105.51718 | 31999 ft | 382 kts | 277° |
| 2026-05-03 22:14 | 35.70213 | -105.58195 | 31975 ft | 382 kts | 277° |
| 2026-05-03 22:15 | 35.70842 | -105.64678 | 31972 ft | 381 kts | 277° |
| 2026-05-03 22:15 | 35.71470 | -105.71155 | 32003 ft | 381 kts | 277° |
| 2026-05-03 22:16 | 35.72098 | -105.77625 | 31994 ft | 381 kts | 277° |
| 2026-05-03 22:16 | 35.72722 | -105.84104 | 31986 ft | 381 kts | 277° |
| 2026-05-03 22:17 | 35.73339 | -105.90573 | 31987 ft | 381 kts | 277° |
| 2026-05-03 22:17 | 35.73953 | -105.97045 | 32091 ft | 381 kts | 276° |
| 2026-05-03 22:18 | 35.74562 | -106.03518 | 32104 ft | 381 kts | 276° |
| 2026-05-03 22:18 | 35.75169 | -106.09988 | 32104 ft | 380 kts | 276° |
| 2026-05-03 22:19 | 35.75772 | -106.16455 | 32091 ft | 380 kts | 276° |
| 2026-05-03 22:19 | 35.76367 | -106.22929 | 32074 ft | 381 kts | 276° |
| 2026-05-03 22:20 | 35.76964 | -106.29405 | 32044 ft | 380 kts | 276° |
| 2026-05-03 22:20 | 35.77559 | -106.35874 | 32001 ft | 380 kts | 276° |
| 2026-05-03 22:21 | 35.78143 | -106.42344 | 31985 ft | 380 kts | 276° |
| 2026-05-03 22:21 | 35.78734 | -106.48807 | 31965 ft | 380 kts | 276° |
| 2026-05-03 22:22 | 35.79317 | -106.55268 | 31982 ft | 379 kts | 276° |
| 2026-05-03 22:22 | 35.79895 | -106.61722 | 31983 ft | 379 kts | 276° |
| 2026-05-03 22:23 | 35.80471 | -106.68176 | 31992 ft | 379 kts | 276° |
| 2026-05-03 22:23 | 35.81033 | -106.74622 | 32020 ft | 379 kts | 275° |
| 2026-05-03 22:24 | 35.81592 | -106.81071 | 32007 ft | 379 kts | 276° |
| 2026-05-03 22:24 | 35.82156 | -106.87517 | 32000 ft | 379 kts | 276° |
| 2026-05-03 22:25 | 35.82721 | -106.93974 | 32003 ft | 379 kts | 276° |
| 2026-05-03 22:25 | 35.83277 | -107.00428 | 32002 ft | 379 kts | 276° |
| 2026-05-03 22:26 | 35.83829 | -107.06884 | 31982 ft | 379 kts | 276° |
| 2026-05-03 22:26 | 35.84373 | -107.13330 | 31991 ft | 378 kts | 275° |
| 2026-05-03 22:27 | 35.84915 | -107.19781 | 31984 ft | 378 kts | 275° |
| 2026-05-03 22:27 | 35.85458 | -107.26228 | 31986 ft | 378 kts | 275° |
| 2026-05-03 22:28 | 35.85994 | -107.32672 | 31987 ft | 378 kts | 275° |
| 2026-05-03 22:28 | 35.86524 | -107.39125 | 31982 ft | 378 kts | 275° |
| 2026-05-03 22:29 | 35.87058 | -107.45565 | 31995 ft | 377 kts | 275° |
| 2026-05-03 22:29 | 35.87586 | -107.51989 | 31983 ft | 376 kts | 275° |
| 2026-05-03 22:30 | 35.88106 | -107.58397 | 31983 ft | 376 kts | 275° |
| 2026-05-03 22:30 | 35.88618 | -107.64804 | 31964 ft | 375 kts | 275° |
| 2026-05-03 22:31 | 35.89126 | -107.71165 | 31957 ft | 375 kts | 275° |
| 2026-05-03 22:31 | 35.89640 | -107.77608 | 31974 ft | 375 kts | 274° |
| 2026-05-03 22:32 | 35.90139 | -107.83997 | 31967 ft | 374 kts | 274° |
| 2026-05-03 22:32 | 35.90634 | -107.90384 | 31944 ft | 374 kts | 274° |
| 2026-05-03 22:33 | 35.91135 | -107.96767 | 31942 ft | 374 kts | 274° |
| 2026-05-03 22:33 | 35.91628 | -108.03154 | 31923 ft | 374 kts | 274° |
| 2026-05-03 22:34 | 35.92115 | -108.09535 | 31916 ft | 374 kts | 274° |
| 2026-05-03 22:34 | 35.92602 | -108.15909 | 31914 ft | 374 kts | 274° |
| 2026-05-03 22:35 | 35.93089 | -108.22296 | 31902 ft | 374 kts | 274° |
| 2026-05-03 22:35 | 35.93571 | -108.28680 | 31902 ft | 374 kts | 274° |
| 2026-05-03 22:36 | 35.94047 | -108.35070 | 31901 ft | 374 kts | 274° |
| 2026-05-03 22:36 | 35.94480 | -108.41463 | 31899 ft | 374 kts | 269° |
| 2026-05-03 22:36 | 35.94217 | -108.44646 | 31718 ft | 372 kts | 263° |
| 2026-05-03 22:37 | 35.93834 | -108.47788 | 31444 ft | 370 kts | 262° |
| 2026-05-03 22:37 | 35.93434 | -108.50917 | 31240 ft | 370 kts | 262° |
| 2026-05-03 22:37 | 35.93024 | -108.54052 | 31119 ft | 371 kts | 262° |
| 2026-05-03 22:37 | 35.92614 | -108.57194 | 30996 ft | 371 kts | 261° |
| 2026-05-03 22:38 | 35.92203 | -108.60345 | 30872 ft | 372 kts | 261° |
| 2026-05-03 22:38 | 35.91793 | -108.63501 | 30752 ft | 373 kts | 261° |
| 2026-05-03 22:38 | 35.91383 | -108.66667 | 30631 ft | 374 kts | 261° |
| 2026-05-03 22:38 | 35.90972 | -108.69840 | 30512 ft | 376 kts | 261° |
| 2026-05-03 22:39 | 35.90558 | -108.73023 | 30406 ft | 377 kts | 261° |
| 2026-05-03 22:39 | 35.90140 | -108.76216 | 30282 ft | 377 kts | 261° |
| 2026-05-03 22:39 | 35.89721 | -108.79413 | 30157 ft | 379 kts | 261° |
| 2026-05-03 22:39 | 35.89302 | -108.82623 | 30023 ft | 380 kts | 261° |
| 2026-05-03 22:40 | 35.88880 | -108.85854 | 29901 ft | 381 kts | 261° |
| 2026-05-03 22:40 | 35.88036 | -108.92313 | 29934 ft | 382 kts | 261° |
| 2026-05-03 22:41 | 35.87189 | -108.98778 | 29943 ft | 382 kts | 261° |
| 2026-05-03 22:41 | 35.86332 | -109.05240 | 29939 ft | 382 kts | 261° |
| 2026-05-03 22:41 | 35.85906 | -109.08467 | 30048 ft | 382 kts | 261° |
| 2026-05-03 22:42 | 35.85480 | -109.11694 | 30047 ft | 382 kts | 261° |
| 2026-05-03 22:42 | 35.84621 | -109.18115 | 30020 ft | 383 kts | 260° |
| 2026-05-03 22:43 | 35.83748 | -109.24594 | 30008 ft | 384 kts | 260° |
| 2026-05-03 22:43 | 35.82873 | -109.31086 | 29982 ft | 384 kts | 260° |
| 2026-05-03 22:44 | 35.81994 | -109.37579 | 29955 ft | 385 kts | 260° |
| 2026-05-03 22:44 | 35.81113 | -109.44081 | 29925 ft | 385 kts | 260° |
| 2026-05-03 22:45 | 35.80229 | -109.50585 | 29913 ft | 385 kts | 260° |
| 2026-05-03 22:45 | 35.79343 | -109.57080 | 29921 ft | 384 kts | 260° |
| 2026-05-03 22:46 | 35.78453 | -109.63570 | 29924 ft | 384 kts | 260° |
| 2026-05-03 22:46 | 35.77557 | -109.70054 | 29918 ft | 384 kts | 260° |
| 2026-05-03 22:47 | 35.76659 | -109.76530 | 29921 ft | 384 kts | 260° |
| 2026-05-03 22:47 | 35.75755 | -109.83003 | 29907 ft | 383 kts | 260° |
| 2026-05-03 22:48 | 35.74849 | -109.89474 | 29920 ft | 383 kts | 260° |
| 2026-05-03 22:48 | 35.73945 | -109.95937 | 29920 ft | 383 kts | 261° |
| 2026-05-03 22:49 | 35.73044 | -110.02392 | 29922 ft | 383 kts | 260° |
| 2026-05-03 22:49 | 35.72131 | -110.08844 | 29909 ft | 383 kts | 260° |
| 2026-05-03 22:50 | 35.71213 | -110.15291 | 29903 ft | 382 kts | 261° |
| 2026-05-03 22:50 | 35.70295 | -110.21723 | 29905 ft | 381 kts | 261° |
| 2026-05-03 22:51 | 35.69380 | -110.28142 | 29910 ft | 381 kts | 261° |
| 2026-05-03 22:51 | 35.68459 | -110.34553 | 29897 ft | 380 kts | 261° |
| 2026-05-03 22:52 | 35.67690 | -110.39876 | 29893 ft | 380 kts | 261° |
| 2026-05-03 22:52 | 35.66761 | -110.46273 | 29893 ft | 380 kts | 261° |
| 2026-05-03 22:53 | 35.65834 | -110.52674 | 29879 ft | 380 kts | 261° |
| 2026-05-03 22:53 | 35.64903 | -110.59072 | 29881 ft | 380 kts | 261° |
| 2026-05-03 22:54 | 35.63968 | -110.65464 | 29862 ft | 380 kts | 261° |
| 2026-05-03 22:54 | 35.63027 | -110.71855 | 29861 ft | 380 kts | 261° |
| 2026-05-03 22:55 | 35.62079 | -110.78245 | 29839 ft | 380 kts | 261° |
| 2026-05-03 22:55 | 35.61132 | -110.84628 | 29845 ft | 380 kts | 261° |
| 2026-05-03 22:56 | 35.60185 | -110.91015 | 29829 ft | 380 kts | 260° |
| 2026-05-03 22:56 | 35.59231 | -110.97403 | 29823 ft | 380 kts | 260° |
| 2026-05-03 22:57 | 35.58280 | -111.03787 | 29819 ft | 380 kts | 260° |
| 2026-05-03 22:57 | 35.57325 | -111.10165 | 29817 ft | 380 kts | 260° |
| 2026-05-03 22:58 | 35.56363 | -111.16545 | 29863 ft | 380 kts | 260° |
| 2026-05-03 22:58 | 35.55391 | -111.22911 | 29852 ft | 379 kts | 260° |
| 2026-05-03 22:59 | 35.54424 | -111.29261 | 29876 ft | 378 kts | 260° |
| 2026-05-03 22:59 | 35.53461 | -111.35604 | 29866 ft | 378 kts | 260° |
| 2026-05-03 23:00 | 35.52493 | -111.41937 | 29888 ft | 377 kts | 260° |
| 2026-05-03 23:00 | 35.51518 | -111.48264 | 29884 ft | 377 kts | 260° |
| 2026-05-03 23:01 | 35.50538 | -111.54591 | 29902 ft | 377 kts | 260° |
| 2026-05-03 23:01 | 35.49564 | -111.60917 | 29907 ft | 377 kts | 260° |
| 2026-05-03 23:02 | 35.48584 | -111.67238 | 29902 ft | 377 kts | 260° |
| 2026-05-03 23:02 | 35.47598 | -111.73560 | 29899 ft | 377 kts | 259° |
| 2026-05-03 23:03 | 35.46605 | -111.79879 | 29904 ft | 377 kts | 260° |
| 2026-05-03 23:03 | 35.45817 | -111.86229 | 29908 ft | 377 kts | 268° |
| 2026-05-03 23:04 | 35.46431 | -111.92642 | 29909 ft | 380 kts | 276° |
| 2026-05-03 23:04 | 35.47242 | -111.99044 | 29074 ft | 380 kts | 276° |
| 2026-05-03 23:04 | 35.47644 | -112.02247 | 28775 ft | 383 kts | 276° |
| 2026-05-03 23:05 | 35.48049 | -112.05491 | 28508 ft | 387 kts | 276° |
| 2026-05-03 23:05 | 35.48457 | -112.08768 | 28244 ft | 389 kts | 276° |
| 2026-05-03 23:05 | 35.48865 | -112.12060 | 27973 ft | 392 kts | 275° |
| 2026-05-03 23:05 | 35.49276 | -112.15376 | 27718 ft | 395 kts | 275° |
| 2026-05-03 23:06 | 35.49690 | -112.18720 | 27459 ft | 397 kts | 275° |
| 2026-05-03 23:06 | 35.50108 | -112.22076 | 27186 ft | 398 kts | 275° |
| 2026-05-03 23:06 | 35.50526 | -112.25439 | 26924 ft | 398 kts | 275° |
| 2026-05-03 23:06 | 35.50944 | -112.28798 | 26677 ft | 398 kts | 275° |
| 2026-05-03 23:07 | 35.51361 | -112.32158 | 26430 ft | 398 kts | 275° |
| 2026-05-03 23:07 | 35.51774 | -112.35509 | 26168 ft | 397 kts | 275° |
| 2026-05-03 23:07 | 35.52185 | -112.38860 | 25924 ft | 397 kts | 275° |
| 2026-05-03 23:07 | 35.52595 | -112.42204 | 25682 ft | 396 kts | 275° |
| 2026-05-03 23:08 | 35.53004 | -112.45546 | 25442 ft | 396 kts | 275° |
| 2026-05-03 23:08 | 35.53411 | -112.48884 | 25202 ft | 394 kts | 274° |
| 2026-05-03 23:08 | 35.53814 | -112.52207 | 24969 ft | 393 kts | 274° |
| 2026-05-03 23:08 | 35.54216 | -112.55530 | 24749 ft | 395 kts | 274° |
| 2026-05-03 23:09 | 35.54618 | -112.58870 | 24507 ft | 396 kts | 274° |
| 2026-05-03 23:09 | 35.55020 | -112.62214 | 24275 ft | 396 kts | 274° |
| 2026-05-03 23:09 | 35.55421 | -112.65555 | 24047 ft | 396 kts | 274° |
| 2026-05-03 23:09 | 35.55821 | -112.68898 | 23820 ft | 396 kts | 274° |
| 2026-05-03 23:10 | 35.56221 | -112.72244 | 23589 ft | 396 kts | 274° |
| 2026-05-03 23:10 | 35.56620 | -112.75590 | 23359 ft | 396 kts | 274° |
| 2026-05-03 23:10 | 35.57017 | -112.78937 | 23098 ft | 395 kts | 274° |
| 2026-05-03 23:10 | 35.57411 | -112.82264 | 22835 ft | 393 kts | 274° |
| 2026-05-03 23:11 | 35.57804 | -112.85587 | 22551 ft | 392 kts | 274° |
| 2026-05-03 23:11 | 35.58194 | -112.88897 | 22286 ft | 391 kts | 274° |
| 2026-05-03 23:11 | 35.58585 | -112.92208 | 22023 ft | 391 kts | 274° |
| 2026-05-03 23:11 | 35.58974 | -112.95512 | 21763 ft | 391 kts | 274° |
| 2026-05-03 23:12 | 35.59364 | -112.98814 | 21498 ft | 391 kts | 274° |
| 2026-05-03 23:12 | 35.59753 | -113.02119 | 21243 ft | 390 kts | 274° |
| 2026-05-03 23:12 | 35.60140 | -113.05416 | 20989 ft | 390 kts | 274° |
| 2026-05-03 23:12 | 35.60525 | -113.08712 | 20731 ft | 390 kts | 274° |
| 2026-05-03 23:13 | 35.60910 | -113.12012 | 20489 ft | 390 kts | 274° |
| 2026-05-03 23:13 | 35.61291 | -113.15305 | 20233 ft | 389 kts | 274° |
| 2026-05-03 23:13 | 35.61672 | -113.18602 | 19982 ft | 389 kts | 274° |
| 2026-05-03 23:13 | 35.62051 | -113.21892 | 19786 ft | 388 kts | 274° |
| 2026-05-03 23:14 | 35.62430 | -113.25180 | 19795 ft | 389 kts | 274° |
| 2026-05-03 23:14 | 35.62808 | -113.28478 | 19803 ft | 392 kts | 273° |
| 2026-05-03 23:14 | 35.63186 | -113.31795 | 19801 ft | 393 kts | 273° |
| 2026-05-03 23:14 | 35.63564 | -113.35124 | 19797 ft | 393 kts | 273° |
| 2026-05-03 23:15 | 35.63943 | -113.38450 | 19781 ft | 393 kts | 274° |
| 2026-05-03 23:15 | 35.64323 | -113.41786 | 19786 ft | 394 kts | 274° |
| 2026-05-03 23:15 | 35.64702 | -113.45115 | 19780 ft | 393 kts | 274° |
| 2026-05-03 23:15 | 35.65078 | -113.48446 | 19779 ft | 393 kts | 274° |
| 2026-05-03 23:16 | 35.65486 | -113.51770 | 19598 ft | 394 kts | 275° |
| 2026-05-03 23:16 | 35.65989 | -113.55080 | 19360 ft | 394 kts | 277° |
| 2026-05-03 23:16 | 35.66550 | -113.58376 | 19121 ft | 394 kts | 278° |
| 2026-05-03 23:16 | 35.67130 | -113.61668 | 18879 ft | 394 kts | 278° |
| 2026-05-03 23:17 | 35.67706 | -113.64965 | 18628 ft | 394 kts | 278° |
| 2026-05-03 23:17 | 35.68270 | -113.68254 | 18397 ft | 393 kts | 277° |
| 2026-05-03 23:17 | 35.68820 | -113.71548 | 18167 ft | 393 kts | 277° |
| 2026-05-03 23:17 | 35.69359 | -113.74839 | 17922 ft | 393 kts | 277° |
| 2026-05-03 23:18 | 35.69889 | -113.78118 | 17659 ft | 389 kts | 276° |
| 2026-05-03 23:18 | 35.70416 | -113.81383 | 17395 ft | 389 kts | 277° |
| 2026-05-03 23:18 | 35.70940 | -113.84646 | 17131 ft | 388 kts | 277° |
| 2026-05-03 23:18 | 35.71460 | -113.87892 | 16870 ft | 387 kts | 277° |
| 2026-05-03 23:19 | 35.71982 | -113.91139 | 16613 ft | 386 kts | 277° |
| 2026-05-03 23:19 | 35.72507 | -113.94389 | 16363 ft | 389 kts | 277° |
| 2026-05-03 23:19 | 35.73032 | -113.97651 | 16110 ft | 386 kts | 277° |
| 2026-05-03 23:19 | 35.73550 | -114.00839 | 15847 ft | 374 kts | 277° |
| 2026-05-03 23:20 | 35.74052 | -114.03927 | 15602 ft | 363 kts | 276° |
| 2026-05-03 23:20 | 35.74536 | -114.06928 | 15363 ft | 353 kts | 277° |
| 2026-05-03 23:20 | 35.75005 | -114.09852 | 15110 ft | 343 kts | 277° |
| 2026-05-03 23:20 | 35.75460 | -114.12695 | 14872 ft | 334 kts | 277° |
| 2026-05-03 23:21 | 35.76030 | -114.15442 | 14624 ft | 331 kts | 286° |
| 2026-05-03 23:21 | 35.77043 | -114.17974 | 14378 ft | 327 kts | 294° |
| 2026-05-03 23:21 | 35.78120 | -114.20401 | 14138 ft | 321 kts | 292° |
| 2026-05-03 23:21 | 35.79185 | -114.22803 | 13904 ft | 319 kts | 294° |
| 2026-05-03 23:22 | 35.81291 | -114.27569 | 13420 ft | 316 kts | 292° |
| 2026-05-03 23:22 | 35.82339 | -114.29946 | 13155 ft | 315 kts | 294° |
| 2026-05-03 23:22 | 35.83385 | -114.32315 | 12896 ft | 314 kts | 292° |
| 2026-05-03 23:23 | 35.84588 | -114.34582 | 12632 ft | 319 kts | 301° |
| 2026-05-03 23:23 | 35.85947 | -114.36753 | 12378 ft | 318 kts | 302° |
| 2026-05-03 23:23 | 35.87294 | -114.38905 | 12137 ft | 316 kts | 303° |
| 2026-05-03 23:23 | 35.88626 | -114.41031 | 11882 ft | 311 kts | 301° |
| 2026-05-03 23:24 | 35.89940 | -114.43128 | 11627 ft | 308 kts | 301° |
| 2026-05-03 23:24 | 35.91243 | -114.45216 | 11391 ft | 307 kts | 301° |
| 2026-05-03 23:24 | 35.92541 | -114.47301 | 11146 ft | 306 kts | 302° |
| 2026-05-03 23:24 | 35.93831 | -114.49380 | 10909 ft | 305 kts | 302° |
| 2026-05-03 23:25 | 35.95119 | -114.51457 | 10668 ft | 304 kts | 302° |
| 2026-05-03 23:25 | 35.96408 | -114.53535 | 10436 ft | 305 kts | 301° |
| 2026-05-03 23:25 | 35.97691 | -114.55616 | 10200 ft | 305 kts | 301° |
| 2026-05-03 23:25 | 35.98972 | -114.57697 | 10032 ft | 304 kts | 301° |
| 2026-05-03 23:26 | 36.00246 | -114.59768 | 9776 ft | 303 kts | 301° |
| 2026-05-03 23:26 | 36.01512 | -114.61830 | 9469 ft | 300 kts | 301° |
| 2026-05-03 23:26 | 36.02754 | -114.63847 | 9165 ft | 297 kts | 301° |
| 2026-05-03 23:26 | 36.03975 | -114.65904 | 8889 ft | 289 kts | 295° |
| 2026-05-03 23:27 | 36.04997 | -114.67998 | 8594 ft | 288 kts | 295° |
| 2026-05-03 23:27 | 36.06022 | -114.70087 | 8297 ft | 279 kts | 295° |
| 2026-05-03 23:27 | 36.06929 | -114.72123 | 8053 ft | 260 kts | 284° |
| 2026-05-03 23:27 | 36.07313 | -114.74232 | 7772 ft | 247 kts | 266° |
| 2026-05-03 23:28 | 36.07326 | -114.76347 | 7473 ft | 246 kts | 263° |
| 2026-05-03 23:28 | 36.07330 | -114.78457 | 7174 ft | 246 kts | 264° |
| 2026-05-03 23:28 | 36.07335 | -114.80568 | 6868 ft | 246 kts | 264° |
| 2026-05-03 23:28 | 36.07340 | -114.82688 | 6553 ft | 247 kts | 262° |
| 2026-05-03 23:29 | 36.07344 | -114.84818 | 6245 ft | 247 kts | 263° |
| 2026-05-03 23:29 | 36.07350 | -114.86894 | 5938 ft | 236 kts | 263° |
| 2026-05-03 23:29 | 36.07354 | -114.88890 | 5640 ft | 228 kts | 263° |
| 2026-05-03 23:29 | 36.07357 | -114.90814 | 5358 ft | 220 kts | 262° |
| 2026-05-03 23:30 | 36.07360 | -114.92677 | 5070 ft | 213 kts | 260° |
| 2026-05-03 23:30 | 36.07362 | -114.94465 | 4819 ft | 204 kts | 263° |
| 2026-05-03 23:30 | 36.07363 | -114.96201 | 4568 ft | 200 kts | 261° |
| 2026-05-03 23:30 | 36.07364 | -114.97900 | 4306 ft | 194 kts | 262° |
| 2026-05-03 23:31 | 36.07366 | -114.99532 | 4071 ft | 186 kts | 262° |
| 2026-05-03 23:31 | 36.07369 | -115.01075 | 3867 ft | 170 kts | 263° |
| 2026-05-03 23:31 | 36.07370 | -115.02447 | 3658 ft | 153 kts | 263° |
| 2026-05-03 23:31 | 36.07369 | -115.03757 | 3471 ft | 148 kts | 261° |
| 2026-05-03 23:32 | 36.07368 | -115.04988 | 3296 ft | 145 kts | 262° |
| 2026-05-03 23:32 | 36.07368 | -115.06205 | 3129 ft | 140 kts | 260° |
| 2026-05-03 23:32 | 36.07368 | -115.07428 | 2932 ft | 143 kts | 258° |
| 2026-05-03 23:32 | 36.07367 | -115.08647 | 2741 ft | 143 kts | 261° |
| 2026-05-03 23:33 | 36.07366 | -115.09868 | 2560 ft | 142 kts | 263° |
| 2026-05-03 23:33 | 36.07366 | -115.11118 | 2351 ft | 149 kts | 266° |
| 2026-05-03 23:33 | 36.07372 | -115.12384 | 2201 ft | 146 kts | 263° |
| 2026-05-03 23:33 | 36.07372 | -115.13211 | 2131 ft | 134 kts | 263° |
| 2026-05-03 23:34 | 36.07360 | -115.14093 | 2125 ft | 75 kts | 273° |
| 2026-05-03 23:34 | 36.07363 | -115.14571 | 2129 ft | 34 kts | 269° |
| 2026-05-03 23:34 | 36.07382 | -115.14815 | 2125 ft | 22 kts | 287° |
| 2026-05-03 23:34 | 36.07434 | -115.14971 | 2123 ft | 12 kts | 300° |
| 2026-05-03 23:35 | 36.07475 | -115.15059 | 2122 ft | 0 kts | 301° |
| 2026-05-03 23:35 | 36.07477 | -115.15063 | 2122 ft | 1 kts | 300° |
| 2026-05-03 23:35 | 36.07483 | -115.15075 | 2121 ft | 2 kts | 305° |
| 2026-05-03 23:35 | 36.07497 | -115.15095 | 2121 ft | 4 kts | 313° |
| 2026-05-03 23:36 | 36.07519 | -115.15118 | 2122 ft | 6 kts | 321° |
| 2026-05-03 23:36 | 36.07562 | -115.15153 | 2125 ft | 9 kts | 327° |
| 2026-05-03 23:36 | 36.07633 | -115.15194 | 2128 ft | 13 kts | 338° |
| 2026-05-03 23:36 | 36.07707 | -115.15235 | 2128 ft | 10 kts | 335° |
| 2026-05-03 23:37 | 36.07772 | -115.15273 | 2127 ft | 10 kts | 334° |
| 2026-05-03 23:37 | 36.07839 | -115.15308 | 2129 ft | 10 kts | 353° |
| 2026-05-03 23:37 | 36.07875 | -115.15233 | 2127 ft | 13 kts | 86° |
| 2026-05-03 23:37 | 36.07877 | -115.15111 | 2126 ft | 16 kts | 91° |
| 2026-05-03 23:38 | 36.07868 | -115.14967 | 2125 ft | 18 kts | 95° |
| 2026-05-03 23:38 | 36.07857 | -115.14799 | 2122 ft | 22 kts | 95° |
| 2026-05-03 23:38 | 36.07843 | -115.14594 | 2118 ft | 26 kts | 95° |
| 2026-05-03 23:38 | 36.07835 | -115.14459 | 2119 ft | 14 kts | 95° |
| 2026-05-03 23:39 | 36.07827 | -115.14332 | 2119 ft | 16 kts | 91° |
| 2026-05-03 23:39 | 36.07827 | -115.14179 | 2117 ft | 19 kts | 90° |
| 2026-05-03 23:39 | 36.07828 | -115.14011 | 2121 ft | 14 kts | 80° |
| 2026-05-03 23:39 | 36.07896 | -115.13940 | 2120 ft | 14 kts | 42° |
| 2026-05-03 23:40 | 36.07961 | -115.13859 | 2117 ft | 7 kts | 45° |
| 2026-05-03 23:40 | 36.08004 | -115.13803 | 2118 ft | 11 kts | 50° |
| 2026-05-03 23:40 | 36.08046 | -115.13726 | 2116 ft | 12 kts | 44° |
| 2026-05-03 23:40 | 36.08070 | -115.13697 | 2115 ft | 6 kts | 44° |
| 2026-05-03 23:41 | 36.08086 | -115.13677 | 2114 ft | 0 kts | 44° |